Brisbane - Nearby METAR Reports

YBBN - Brisbane Intl Ar, Australia
Distance from station: NNE 11km
Updated: 27/11/2021 22:00
Overcast
Overcast
 Wind from SSE
Wind: SSE 15 km/h
Temperature: 23°C
Dew Point: 19°C
Humidity: 78%
Barometer: 1014 hPa
Clouds: Overcast
Visibility: 10 km
Cloud details: Few Clouds 610 m
Overcast 1676 m
2021/11/27 12:00 YBBN 271200Z 16008KT 9999 FEW020 OVC055 23/19 Q1014
YAMB - Amberley, Australia
Distance from station: WSW 42km
Updated: 27/11/2021 22:00
Overcast
Overcast
 Wind from E
Wind: E 9 km/h
Temperature: 23°C
Dew Point: 19°C
Humidity: 78%
Barometer: 1014 hPa
Clouds: Overcast
Visibility: 10 km
Cloud details: Mostly cloudy 762 m
Overcast 1097 m
2021/11/27 12:00 YAMB 271200Z AUTO 08005KT 9999 // BKN025 OVC036 23/19 Q1014
 
YBCG - Coolangatta Aws, Australia
Distance from station: SSE 102km
Updated: 27/11/2021 22:00
Mostly cloudy
Mostly cloudy
 Wind from S
Wind: S 19 km/h
Temperature: 21°C
Dew Point: 17°C
Humidity: 78%
Barometer: 1015 hPa
Clouds: Mostly cloudy
Visibility: 10 km
Cloud details: Mostly cloudy 1341 m
2021/11/27 12:00 YBCG 271200Z AUTO 19010KT 9999 // BKN044 21/17 Q1015